sensor_id;sensor_type;location;lat;lon;timestamp;P1;durP1;ratioP1;P2;durP2;ratioP2
41627;SDS011;27321;50.816;6.054;2023-01-10T00:00:55;5.43;;;2.00;;
41627;SDS011;27321;50.816;6.054;2023-01-10T00:03:56;5.63;;;2.13;;
41627;SDS011;27321;50.816;6.054;2023-01-10T00:06:57;7.37;;;2.17;;
41627;SDS011;27321;50.816;6.054;2023-01-10T00:09:58;7.50;;;2.37;;
41627;SDS011;27321;50.816;6.054;2023-01-10T00:12:59;6.13;;;2.10;;
41627;SDS011;27321;50.816;6.054;2023-01-10T00:16:19;7.13;;;2.10;;
41627;SDS011;27321;50.816;6.054;2023-01-10T00:19:20;3.25;;;1.55;;
41627;SDS011;27321;50.816;6.054;2023-01-10T00:22:21;7.30;;;2.13;;
41627;SDS011;27321;50.816;6.054;2023-01-10T00:25:24;8.17;;;2.50;;
41627;SDS011;27321;50.816;6.054;2023-01-10T00:28:25;7.80;;;2.42;;
41627;SDS011;27321;50.816;6.054;2023-01-10T00:31:26;7.93;;;2.17;;
41627;SDS011;27321;50.816;6.054;2023-01-10T00:34:27;6.23;;;2.43;;
41627;SDS011;27321;50.816;6.054;2023-01-10T00:37:29;6.07;;;2.05;;
41627;SDS011;27321;50.816;6.054;2023-01-10T00:40:33;6.50;;;2.23;;
41627;SDS011;27321;50.816;6.054;2023-01-10T00:43:34;4.67;;;2.10;;
41627;SDS011;27321;50.816;6.054;2023-01-10T00:46:53;7.80;;;2.03;;
41627;SDS011;27321;50.816;6.054;2023-01-10T00:49:54;12.33;;;2.70;;
41627;SDS011;27321;50.816;6.054;2023-01-10T00:52:55;8.87;;;2.43;;
41627;SDS011;27321;50.816;6.054;2023-01-10T00:55:56;4.63;;;2.00;;
41627;SDS011;27321;50.816;6.054;2023-01-10T00:58:57;5.33;;;2.10;;
41627;SDS011;27321;50.816;6.054;2023-01-10T01:01:58;6.47;;;2.03;;
41627;SDS011;27321;50.816;6.054;2023-01-10T01:04:59;5.40;;;1.53;;
41627;SDS011;27321;50.816;6.054;2023-01-10T01:07:59;9.00;;;2.13;;
41627;SDS011;27321;50.816;6.054;2023-01-10T01:11:00;6.83;;;2.20;;
41627;SDS011;27321;50.816;6.054;2023-01-10T01:14:02;7.93;;;2.00;;
41627;SDS011;27321;50.816;6.054;2023-01-10T01:17:02;5.60;;;2.10;;
41627;SDS011;27321;50.816;6.054;2023-01-10T01:20:03;4.67;;;1.77;;
41627;SDS011;27321;50.816;6.054;2023-01-10T01:23:05;7.43;;;2.00;;
41627;SDS011;27321;50.816;6.054;2023-01-10T01:26:07;9.88;;;1.88;;
41627;SDS011;27321;50.816;6.054;2023-01-10T01:29:10;7.90;;;2.07;;
41627;SDS011;27321;50.816;6.054;2023-01-10T01:32:11;4.40;;;1.80;;
41627;SDS011;27321;50.816;6.054;2023-01-10T01:35:12;11.07;;;2.33;;
41627;SDS011;27321;50.816;6.054;2023-01-10T01:38:15;7.17;;;1.83;;
41627;SDS011;27321;50.816;6.054;2023-01-10T01:44:36;7.90;;;1.90;;
41627;SDS011;27321;50.816;6.054;2023-01-10T01:47:47;8.43;;;2.27;;
41627;SDS011;27321;50.816;6.054;2023-01-10T01:51:02;8.70;;;1.80;;
41627;SDS011;27321;50.816;6.054;2023-01-10T01:54:15;7.90;;;2.10;;
41627;SDS011;27321;50.816;6.054;2023-01-10T01:57:18;5.70;;;1.87;;
41627;SDS011;27321;50.816;6.054;2023-01-10T02:00:23;8.03;;;2.07;;
41627;SDS011;27321;50.816;6.054;2023-01-10T02:03:24;5.50;;;1.83;;
41627;SDS011;27321;50.816;6.054;2023-01-10T02:09:39;8.40;;;2.10;;
41627;SDS011;27321;50.816;6.054;2023-01-10T02:12:45;7.90;;;1.97;;
41627;SDS011;27321;50.816;6.054;2023-01-10T02:15:49;9.30;;;1.80;;
41627;SDS011;27321;50.816;6.054;2023-01-10T02:18:50;5.33;;;1.97;;
41627;SDS011;27321;50.816;6.054;2023-01-10T02:39:16;7.87;;;1.93;;
41627;SDS011;27321;50.816;6.054;2023-01-10T02:46:15;13.10;;;1.80;;
41627;SDS011;27321;50.816;6.054;2023-01-10T02:49:24;7.63;;;1.93;;
41627;SDS011;27321;50.816;6.054;2023-01-10T02:52:26;7.60;;;2.50;;
41627;SDS011;27321;50.816;6.054;2023-01-10T02:56:14;7.47;;;1.77;;
41627;SDS011;27321;50.816;6.054;2023-01-10T03:02:27;8.07;;;2.00;;
41627;SDS011;27321;50.816;6.054;2023-01-10T03:06:10;6.47;;;2.10;;
41627;SDS011;27321;50.816;6.054;2023-01-10T03:09:39;10.27;;;2.13;;
41627;SDS011;27321;50.816;6.054;2023-01-10T03:16:14;6.90;;;2.03;;
41627;SDS011;27321;50.816;6.054;2023-01-10T03:19:20;10.70;;;2.30;;
41627;SDS011;27321;50.816;6.054;2023-01-10T03:22:24;8.93;;;2.37;;
41627;SDS011;27321;50.816;6.054;2023-01-10T03:25:30;9.83;;;2.17;;
41627;SDS011;27321;50.816;6.054;2023-01-10T03:31:53;12.47;;;2.40;;
41627;SDS011;27321;50.816;6.054;2023-01-10T03:35:00;10.50;;;2.70;;
41627;SDS011;27321;50.816;6.054;2023-01-10T03:38:11;12.17;;;2.23;;
41627;SDS011;27321;50.816;6.054;2023-01-10T03:45:09;9.23;;;2.00;;
41627;SDS011;27321;50.816;6.054;2023-01-10T03:48:13;13.93;;;2.83;;
41627;SDS011;27321;50.816;6.054;2023-01-10T03:51:17;13.90;;;2.53;;
41627;SDS011;27321;50.816;6.054;2023-01-10T03:54:18;6.93;;;2.30;;
41627;SDS011;27321;50.816;6.054;2023-01-10T03:57:21;6.57;;;2.05;;
41627;SDS011;27321;50.816;6.054;2023-01-10T04:00:24;10.07;;;2.17;;
41627;SDS011;27321;50.816;6.054;2023-01-10T04:03:25;9.40;;;2.42;;
41627;SDS011;27321;50.816;6.054;2023-01-10T04:06:26;8.27;;;2.73;;
41627;SDS011;27321;50.816;6.054;2023-01-10T04:09:27;9.57;;;2.40;;
41627;SDS011;27321;50.816;6.054;2023-01-10T04:12:28;12.80;;;2.60;;
41627;SDS011;27321;50.816;6.054;2023-01-10T04:15:29;10.48;;;2.28;;
41627;SDS011;27321;50.816;6.054;2023-01-10T04:18:31;9.20;;;2.17;;
41627;SDS011;27321;50.816;6.054;2023-01-10T04:21:32;10.93;;;2.50;;
41627;SDS011;27321;50.816;6.054;2023-01-10T04:24:33;9.13;;;1.90;;
41627;SDS011;27321;50.816;6.054;2023-01-10T04:27:34;7.90;;;2.00;;
41627;SDS011;27321;50.816;6.054;2023-01-10T04:30:35;12.50;;;2.87;;
41627;SDS011;27321;50.816;6.054;2023-01-10T04:33:36;9.57;;;2.50;;
41627;SDS011;27321;50.816;6.054;2023-01-10T04:36:38;7.37;;;2.30;;
41627;SDS011;27321;50.816;6.054;2023-01-10T04:39:39;17.83;;;3.13;;
41627;SDS011;27321;50.816;6.054;2023-01-10T04:42:40;9.90;;;2.37;;
41627;SDS011;27321;50.816;6.054;2023-01-10T04:45:42;15.30;;;3.00;;
41627;SDS011;27321;50.816;6.054;2023-01-10T04:48:43;9.60;;;2.50;;
41627;SDS011;27321;50.816;6.054;2023-01-10T04:51:44;9.47;;;2.40;;
41627;SDS011;27321;50.816;6.054;2023-01-10T04:54:45;12.47;;;2.27;;
41627;SDS011;27321;50.816;6.054;2023-01-10T04:57:45;11.57;;;2.87;;
41627;SDS011;27321;50.816;6.054;2023-01-10T05:00:46;11.53;;;2.47;;
41627;SDS011;27321;50.816;6.054;2023-01-10T05:03:48;8.60;;;2.33;;
41627;SDS011;27321;50.816;6.054;2023-01-10T05:06:51;10.47;;;2.63;;
41627;SDS011;27321;50.816;6.054;2023-01-10T05:09:52;11.00;;;1.93;;
41627;SDS011;27321;50.816;6.054;2023-01-10T05:12:53;12.17;;;3.00;;
41627;SDS011;27321;50.816;6.054;2023-01-10T05:15:54;13.00;;;2.60;;
41627;SDS011;27321;50.816;6.054;2023-01-10T05:18:57;11.43;;;2.67;;
41627;SDS011;27321;50.816;6.054;2023-01-10T05:21:58;11.77;;;2.17;;
41627;SDS011;27321;50.816;6.054;2023-01-10T05:24:59;11.73;;;1.93;;
41627;SDS011;27321;50.816;6.054;2023-01-10T05:28:00;7.50;;;2.22;;
41627;SDS011;27321;50.816;6.054;2023-01-10T05:31:01;6.80;;;2.20;;
41627;SDS011;27321;50.816;6.054;2023-01-10T05:34:05;10.10;;;2.70;;
41627;SDS011;27321;50.816;6.054;2023-01-10T05:37:06;11.32;;;2.97;;
41627;SDS011;27321;50.816;6.054;2023-01-10T05:40:08;12.57;;;2.37;;
41627;SDS011;27321;50.816;6.054;2023-01-10T05:43:09;10.45;;;2.25;;
41627;SDS011;27321;50.816;6.054;2023-01-10T05:46:11;9.77;;;2.40;;
41627;SDS011;27321;50.816;6.054;2023-01-10T05:49:12;14.33;;;2.60;;
41627;SDS011;27321;50.816;6.054;2023-01-10T05:52:13;11.03;;;2.80;;
41627;SDS011;27321;50.816;6.054;2023-01-10T05:55:14;10.50;;;2.50;;
41627;SDS011;27321;50.816;6.054;2023-01-10T05:58:15;8.30;;;2.00;;
41627;SDS011;27321;50.816;6.054;2023-01-10T06:01:16;8.85;;;2.90;;
41627;SDS011;27321;50.816;6.054;2023-01-10T06:04:17;7.27;;;2.53;;
41627;SDS011;27321;50.816;6.054;2023-01-10T06:07:18;14.15;;;2.55;;
41627;SDS011;27321;50.816;6.054;2023-01-10T06:10:19;10.20;;;2.37;;
41627;SDS011;27321;50.816;6.054;2023-01-10T06:13:21;8.97;;;2.73;;
41627;SDS011;27321;50.816;6.054;2023-01-10T06:19:23;11.00;;;2.33;;
41627;SDS011;27321;50.816;6.054;2023-01-10T06:22:24;8.47;;;2.27;;
41627;SDS011;27321;50.816;6.054;2023-01-10T06:25:27;13.57;;;2.47;;
41627;SDS011;27321;50.816;6.054;2023-01-10T06:28:28;13.63;;;2.83;;
41627;SDS011;27321;50.816;6.054;2023-01-10T06:31:29;10.13;;;2.50;;
41627;SDS011;27321;50.816;6.054;2023-01-10T06:34:30;8.43;;;2.40;;
41627;SDS011;27321;50.816;6.054;2023-01-10T06:37:31;14.40;;;2.73;;
41627;SDS011;27321;50.816;6.054;2023-01-10T06:40:32;9.25;;;2.10;;
41627;SDS011;27321;50.816;6.054;2023-01-10T06:43:36;11.33;;;2.70;;
41627;SDS011;27321;50.816;6.054;2023-01-10T06:46:39;13.30;;;2.67;;
41627;SDS011;27321;50.816;6.054;2023-01-10T06:49:40;13.13;;;2.80;;
41627;SDS011;27321;50.816;6.054;2023-01-10T06:52:41;14.93;;;2.80;;
41627;SDS011;27321;50.816;6.054;2023-01-10T06:55:42;13.70;;;3.13;;
41627;SDS011;27321;50.816;6.054;2023-01-10T06:58:46;17.17;;;3.43;;
41627;SDS011;27321;50.816;6.054;2023-01-10T07:01:48;9.77;;;2.37;;
41627;SDS011;27321;50.816;6.054;2023-01-10T07:04:49;11.43;;;2.37;;
41627;SDS011;27321;50.816;6.054;2023-01-10T07:07:50;9.03;;;2.87;;
41627;SDS011;27321;50.816;6.054;2023-01-10T07:10:52;12.10;;;2.95;;
41627;SDS011;27321;50.816;6.054;2023-01-10T07:13:54;9.63;;;2.55;;
41627;SDS011;27321;50.816;6.054;2023-01-10T07:16:55;13.93;;;2.50;;
41627;SDS011;27321;50.816;6.054;2023-01-10T07:19:56;11.00;;;2.58;;
41627;SDS011;27321;50.816;6.054;2023-01-10T07:22:57;11.83;;;2.20;;
41627;SDS011;27321;50.816;6.054;2023-01-10T07:26:07;12.40;;;2.60;;
41627;SDS011;27321;50.816;6.054;2023-01-10T07:29:10;10.63;;;2.73;;
41627;SDS011;27321;50.816;6.054;2023-01-10T07:32:11;22.37;;;2.97;;
41627;SDS011;27321;50.816;6.054;2023-01-10T07:35:12;11.30;;;2.78;;
41627;SDS011;27321;50.816;6.054;2023-01-10T07:38:13;8.73;;;2.57;;
41627;SDS011;27321;50.816;6.054;2023-01-10T07:41:14;9.63;;;2.07;;
41627;SDS011;27321;50.816;6.054;2023-01-10T07:44:15;16.60;;;2.93;;
41627;SDS011;27321;50.816;6.054;2023-01-10T07:47:16;10.03;;;2.47;;
41627;SDS011;27321;50.816;6.054;2023-01-10T07:50:17;17.83;;;2.87;;
41627;SDS011;27321;50.816;6.054;2023-01-10T07:53:18;13.85;;;2.25;;
41627;SDS011;27321;50.816;6.054;2023-01-10T07:56:19;8.60;;;2.10;;
41627;SDS011;27321;50.816;6.054;2023-01-10T07:59:20;11.53;;;3.00;;
41627;SDS011;27321;50.816;6.054;2023-01-10T08:02:21;14.83;;;3.10;;
41627;SDS011;27321;50.816;6.054;2023-01-10T08:05:22;9.27;;;2.35;;
41627;SDS011;27321;50.816;6.054;2023-01-10T08:08:23;10.05;;;2.97;;
41627;SDS011;27321;50.816;6.054;2023-01-10T08:11:24;13.10;;;2.80;;
41627;SDS011;27321;50.816;6.054;2023-01-10T08:14:25;10.30;;;1.90;;
41627;SDS011;27321;50.816;6.054;2023-01-10T08:17:25;15.43;;;2.37;;
41627;SDS011;27321;50.816;6.054;2023-01-10T08:20:27;6.50;;;2.47;;
41627;SDS011;27321;50.816;6.054;2023-01-10T08:23:29;7.60;;;2.23;;
41627;SDS011;27321;50.816;6.054;2023-01-10T08:26:31;11.37;;;2.47;;
41627;SDS011;27321;50.816;6.054;2023-01-10T08:29:32;9.03;;;2.47;;
41627;SDS011;27321;50.816;6.054;2023-01-10T08:32:33;11.23;;;2.70;;
41627;SDS011;27321;50.816;6.054;2023-01-10T08:35:37;11.23;;;2.70;;
41627;SDS011;27321;50.816;6.054;2023-01-10T08:38:40;9.00;;;2.57;;
41627;SDS011;27321;50.816;6.054;2023-01-10T08:41:41;9.13;;;2.37;;
41627;SDS011;27321;50.816;6.054;2023-01-10T08:44:42;14.97;;;2.80;;
41627;SDS011;27321;50.816;6.054;2023-01-10T08:47:44;8.45;;;2.10;;
41627;SDS011;27321;50.816;6.054;2023-01-10T08:50:45;10.67;;;2.97;;
41627;SDS011;27321;50.816;6.054;2023-01-10T08:53:45;7.83;;;2.23;;
41627;SDS011;27321;50.816;6.054;2023-01-10T08:56:46;14.13;;;2.87;;
41627;SDS011;27321;50.816;6.054;2023-01-10T08:59:47;9.47;;;2.53;;
41627;SDS011;27321;50.816;6.054;2023-01-10T09:02:48;15.10;;;2.60;;
41627;SDS011;27321;50.816;6.054;2023-01-10T09:05:49;8.97;;;2.30;;
41627;SDS011;27321;50.816;6.054;2023-01-10T09:08:50;9.87;;;2.47;;
41627;SDS011;27321;50.816;6.054;2023-01-10T09:11:51;13.13;;;2.50;;
41627;SDS011;27321;50.816;6.054;2023-01-10T09:14:52;12.37;;;2.63;;
41627;SDS011;27321;50.816;6.054;2023-01-10T09:17:57;11.75;;;2.50;;
41627;SDS011;27321;50.816;6.054;2023-01-10T09:21:06;9.30;;;2.40;;
41627;SDS011;27321;50.816;6.054;2023-01-10T09:24:07;12.57;;;2.50;;
41627;SDS011;27321;50.816;6.054;2023-01-10T09:27:08;9.50;;;2.58;;
41627;SDS011;27321;50.816;6.054;2023-01-10T09:30:10;10.20;;;2.63;;
41627;SDS011;27321;50.816;6.054;2023-01-10T09:33:12;9.95;;;2.33;;
41627;SDS011;27321;50.816;6.054;2023-01-10T09:36:14;7.10;;;1.88;;
41627;SDS011;27321;50.816;6.054;2023-01-10T09:39:15;6.15;;;1.98;;
41627;SDS011;27321;50.816;6.054;2023-01-10T09:45:56;8.03;;;2.30;;
41627;SDS011;27321;50.816;6.054;2023-01-10T09:52:23;12.80;;;2.80;;
41627;SDS011;27321;50.816;6.054;2023-01-10T09:55:34;9.40;;;2.03;;
41627;SDS011;27321;50.816;6.054;2023-01-10T09:58:37;8.57;;;1.90;;
41627;SDS011;27321;50.816;6.054;2023-01-10T10:01:38;16.30;;;2.63;;
41627;SDS011;27321;50.816;6.054;2023-01-10T10:04:39;9.97;;;2.53;;
41627;SDS011;27321;50.816;6.054;2023-01-10T10:07:41;7.43;;;2.20;;
41627;SDS011;27321;50.816;6.054;2023-01-10T10:10:58;10.37;;;2.67;;
41627;SDS011;27321;50.816;6.054;2023-01-10T10:14:22;16.77;;;3.10;;
41627;SDS011;27321;50.816;6.054;2023-01-10T10:21:02;9.33;;;2.30;;
41627;SDS011;27321;50.816;6.054;2023-01-10T10:35:14;12.57;;;2.20;;
41627;SDS011;27321;50.816;6.054;2023-01-10T10:38:42;11.10;;;2.42;;
41627;SDS011;27321;50.816;6.054;2023-01-10T10:41:47;14.40;;;2.97;;
41627;SDS011;27321;50.816;6.054;2023-01-10T10:45:00;13.03;;;2.60;;
41627;SDS011;27321;50.816;6.054;2023-01-10T10:48:11;11.13;;;2.60;;
41627;SDS011;27321;50.816;6.054;2023-01-10T10:51:41;10.83;;;2.27;;
41627;SDS011;27321;50.816;6.054;2023-01-10T10:54:50;9.80;;;1.90;;
41627;SDS011;27321;50.816;6.054;2023-01-10T10:57:53;9.07;;;2.33;;
41627;SDS011;27321;50.816;6.054;2023-01-10T11:00:54;7.45;;;2.10;;
41627;SDS011;27321;50.816;6.054;2023-01-10T11:04:00;11.77;;;2.10;;
41627;SDS011;27321;50.816;6.054;2023-01-10T11:07:07;9.30;;;2.30;;
41627;SDS011;27321;50.816;6.054;2023-01-10T11:10:20;9.47;;;2.10;;
41627;SDS011;27321;50.816;6.054;2023-01-10T11:13:39;12.37;;;2.13;;
41627;SDS011;27321;50.816;6.054;2023-01-10T11:17:16;5.97;;;2.17;;
41627;SDS011;27321;50.816;6.054;2023-01-10T11:20:26;9.37;;;2.03;;
41627;SDS011;27321;50.816;6.054;2023-01-10T11:26:39;5.87;;;1.93;;
41627;SDS011;27321;50.816;6.054;2023-01-10T11:29:45;9.70;;;2.00;;
41627;SDS011;27321;50.816;6.054;2023-01-10T11:33:06;12.97;;;2.30;;
41627;SDS011;27321;50.816;6.054;2023-01-10T11:36:09;9.33;;;2.20;;
41627;SDS011;27321;50.816;6.054;2023-01-10T11:39:12;8.17;;;1.97;;
41627;SDS011;27321;50.816;6.054;2023-01-10T11:42:25;12.00;;;2.37;;
41627;SDS011;27321;50.816;6.054;2023-01-10T11:45:29;4.88;;;1.70;;
41627;SDS011;27321;50.816;6.054;2023-01-10T11:48:41;12.30;;;2.53;;
41627;SDS011;27321;50.816;6.054;2023-01-10T11:51:51;5.73;;;2.00;;
41627;SDS011;27321;50.816;6.054;2023-01-10T11:54:59;7.90;;;2.27;;
41627;SDS011;27321;50.816;6.054;2023-01-10T11:58:11;7.53;;;1.95;;
41627;SDS011;27321;50.816;6.054;2023-01-10T12:01:28;10.83;;;2.50;;
41627;SDS011;27321;50.816;6.054;2023-01-10T12:04:59;12.50;;;2.13;;
41627;SDS011;27321;50.816;6.054;2023-01-10T12:08:04;14.90;;;3.03;;
41627;SDS011;27321;50.816;6.054;2023-01-10T12:14:17;10.67;;;2.00;;
41627;SDS011;27321;50.816;6.054;2023-01-10T12:20:29;5.07;;;1.70;;
41627;SDS011;27321;50.816;6.054;2023-01-10T12:23:34;5.63;;;1.50;;
41627;SDS011;27321;50.816;6.054;2023-01-10T12:26:40;10.33;;;1.90;;
41627;SDS011;27321;50.816;6.054;2023-01-10T12:29:44;7.20;;;1.90;;
41627;SDS011;27321;50.816;6.054;2023-01-10T12:32:53;7.30;;;2.23;;
41627;SDS011;27321;50.816;6.054;2023-01-10T12:35:58;5.43;;;1.70;;
41627;SDS011;27321;50.816;6.054;2023-01-10T12:39:18;12.35;;;2.30;;
41627;SDS011;27321;50.816;6.054;2023-01-10T12:46:21;6.93;;;1.87;;
41627;SDS011;27321;50.816;6.054;2023-01-10T12:49:53;7.43;;;2.00;;
41627;SDS011;27321;50.816;6.054;2023-01-10T12:53:42;7.97;;;2.23;;
41627;SDS011;27321;50.816;6.054;2023-01-10T12:56:48;9.15;;;2.15;;
41627;SDS011;27321;50.816;6.054;2023-01-10T12:59:50;7.63;;;2.07;;
41627;SDS011;27321;50.816;6.054;2023-01-10T13:02:53;9.77;;;2.30;;
41627;SDS011;27321;50.816;6.054;2023-01-10T13:05:58;7.97;;;2.47;;
41627;SDS011;27321;50.816;6.054;2023-01-10T13:09:02;6.75;;;2.20;;
41627;SDS011;27321;50.816;6.054;2023-01-10T13:12:17;5.23;;;1.90;;
41627;SDS011;27321;50.816;6.054;2023-01-10T13:15:29;7.07;;;2.17;;
41627;SDS011;27321;50.816;6.054;2023-01-10T13:18:35;10.73;;;2.40;;
41627;SDS011;27321;50.816;6.054;2023-01-10T13:21:37;7.77;;;1.60;;
41627;SDS011;27321;50.816;6.054;2023-01-10T13:24:40;5.23;;;1.80;;
41627;SDS011;27321;50.816;6.054;2023-01-10T13:27:41;7.53;;;2.13;;
41627;SDS011;27321;50.816;6.054;2023-01-10T13:30:42;7.30;;;1.87;;
41627;SDS011;27321;50.816;6.054;2023-01-10T13:33:54;8.98;;;2.08;;
41627;SDS011;27321;50.816;6.054;2023-01-10T13:37:00;7.33;;;1.80;;
41627;SDS011;27321;50.816;6.054;2023-01-10T13:40:16;7.53;;;1.63;;
41627;SDS011;27321;50.816;6.054;2023-01-10T13:43:58;6.73;;;1.83;;
41627;SDS011;27321;50.816;6.054;2023-01-10T13:47:08;8.50;;;2.30;;
41627;SDS011;27321;50.816;6.054;2023-01-10T13:56:38;6.93;;;1.93;;
41627;SDS011;27321;50.816;6.054;2023-01-10T14:00:00;9.90;;;2.13;;
41627;SDS011;27321;50.816;6.054;2023-01-10T14:07:05;8.33;;;1.80;;
41627;SDS011;27321;50.816;6.054;2023-01-10T14:10:29;10.30;;;2.33;;
41627;SDS011;27321;50.816;6.054;2023-01-10T14:13:32;9.50;;;2.03;;
41627;SDS011;27321;50.816;6.054;2023-01-10T14:16:34;5.95;;;2.00;;
41627;SDS011;27321;50.816;6.054;2023-01-10T14:19:38;8.00;;;2.03;;
41627;SDS011;27321;50.816;6.054;2023-01-10T14:23:05;9.17;;;2.20;;
41627;SDS011;27321;50.816;6.054;2023-01-10T14:26:37;11.00;;;2.40;;
41627;SDS011;27321;50.816;6.054;2023-01-10T14:29:38;7.03;;;2.03;;
41627;SDS011;27321;50.816;6.054;2023-01-10T14:33:06;5.63;;;1.77;;
41627;SDS011;27321;50.816;6.054;2023-01-10T14:36:27;9.40;;;2.20;;
41627;SDS011;27321;50.816;6.054;2023-01-10T14:39:32;12.67;;;2.50;;
41627;SDS011;27321;50.816;6.054;2023-01-10T14:42:35;7.40;;;1.97;;
41627;SDS011;27321;50.816;6.054;2023-01-10T14:45:38;8.33;;;2.13;;
41627;SDS011;27321;50.816;6.054;2023-01-10T14:52:54;8.67;;;2.00;;
41627;SDS011;27321;50.816;6.054;2023-01-10T14:55:56;7.97;;;1.90;;
41627;SDS011;27321;50.816;6.054;2023-01-10T14:58:57;4.93;;;1.75;;
41627;SDS011;27321;50.816;6.054;2023-01-10T15:02:11;6.03;;;1.37;;
41627;SDS011;27321;50.816;6.054;2023-01-10T15:05:23;6.97;;;2.03;;
41627;SDS011;27321;50.816;6.054;2023-01-10T15:08:27;8.57;;;1.97;;
41627;SDS011;27321;50.816;6.054;2023-01-10T15:11:30;4.87;;;1.73;;
41627;SDS011;27321;50.816;6.054;2023-01-10T15:14:32;5.43;;;1.50;;
41627;SDS011;27321;50.816;6.054;2023-01-10T15:17:34;5.20;;;1.23;;
41627;SDS011;27321;50.816;6.054;2023-01-10T15:20:36;2.80;;;1.20;;
41627;SDS011;27321;50.816;6.054;2023-01-10T15:23:39;4.03;;;1.30;;
41627;SDS011;27321;50.816;6.054;2023-01-10T15:26:43;5.33;;;1.00;;
41627;SDS011;27321;50.816;6.054;2023-01-10T15:29:44;7.27;;;1.43;;
41627;SDS011;27321;50.816;6.054;2023-01-10T15:35:53;3.63;;;1.00;;
41627;SDS011;27321;50.816;6.054;2023-01-10T15:38:57;5.40;;;1.13;;
41627;SDS011;27321;50.816;6.054;2023-01-10T15:41:59;7.67;;;1.40;;
41627;SDS011;27321;50.816;6.054;2023-01-10T15:48:40;3.57;;;1.23;;
41627;SDS011;27321;50.816;6.054;2023-01-10T15:51:46;5.00;;;0.80;;
41627;SDS011;27321;50.816;6.054;2023-01-10T15:54:47;2.77;;;1.00;;
41627;SDS011;27321;50.816;6.054;2023-01-10T15:58:02;3.87;;;1.30;;
41627;SDS011;27321;50.816;6.054;2023-01-10T16:01:26;5.00;;;1.10;;
41627;SDS011;27321;50.816;6.054;2023-01-10T16:04:29;3.53;;;0.80;;
41627;SDS011;27321;50.816;6.054;2023-01-10T16:07:35;1.20;;;0.77;;
41627;SDS011;27321;50.816;6.054;2023-01-10T16:10:44;2.13;;;0.90;;
41627;SDS011;27321;50.816;6.054;2023-01-10T16:13:58;5.43;;;0.90;;
41627;SDS011;27321;50.816;6.054;2023-01-10T16:17:04;2.90;;;0.77;;
41627;SDS011;27321;50.816;6.054;2023-01-10T16:20:06;2.90;;;0.70;;
41627;SDS011;27321;50.816;6.054;2023-01-10T16:23:22;2.13;;;0.90;;
41627;SDS011;27321;50.816;6.054;2023-01-10T16:26:31;2.17;;;0.40;;
41627;SDS011;27321;50.816;6.054;2023-01-10T16:29:33;1.30;;;0.50;;
41627;SDS011;27321;50.816;6.054;2023-01-10T16:32:34;1.80;;;0.93;;
41627;SDS011;27321;50.816;6.054;2023-01-10T16:35:35;1.45;;;0.70;;
41627;SDS011;27321;50.816;6.054;2023-01-10T16:38:37;1.38;;;0.50;;
41627;SDS011;27321;50.816;6.054;2023-01-10T16:41:42;2.90;;;0.60;;
41627;SDS011;27321;50.816;6.054;2023-01-10T16:45:03;1.23;;;0.30;;
41627;SDS011;27321;50.816;6.054;2023-01-10T16:48:05;1.90;;;0.57;;
41627;SDS011;27321;50.816;6.054;2023-01-10T16:51:20;1.35;;;0.43;;
41627;SDS011;27321;50.816;6.054;2023-01-10T16:54:24;1.20;;;0.40;;
41627;SDS011;27321;50.816;6.054;2023-01-10T16:57:25;1.50;;;0.50;;
41627;SDS011;27321;50.816;6.054;2023-01-10T17:00:26;3.13;;;0.50;;
41627;SDS011;27321;50.816;6.054;2023-01-10T17:03:27;2.20;;;0.57;;
41627;SDS011;27321;50.816;6.054;2023-01-10T17:06:36;0.97;;;0.40;;
41627;SDS011;27321;50.816;6.054;2023-01-10T17:09:39;2.50;;;0.40;;
41627;SDS011;27321;50.816;6.054;2023-01-10T17:12:40;0.80;;;0.43;;
41627;SDS011;27321;50.816;6.054;2023-01-10T17:15:42;2.17;;;0.40;;
41627;SDS011;27321;50.816;6.054;2023-01-10T17:18:43;0.40;;;0.27;;
41627;SDS011;27321;50.816;6.054;2023-01-10T17:21:43;0.43;;;0.30;;
41627;SDS011;27321;50.816;6.054;2023-01-10T17:24:44;0.67;;;0.30;;
41627;SDS011;27321;50.816;6.054;2023-01-10T17:27:45;0.43;;;0.30;;
41627;SDS011;27321;50.816;6.054;2023-01-10T17:30:47;0.70;;;0.28;;
41627;SDS011;27321;50.816;6.054;2023-01-10T17:33:48;2.33;;;0.40;;
41627;SDS011;27321;50.816;6.054;2023-01-10T17:36:49;0.67;;;0.50;;
41627;SDS011;27321;50.816;6.054;2023-01-10T17:39:50;1.25;;;0.38;;
41627;SDS011;27321;50.816;6.054;2023-01-10T17:42:51;1.43;;;0.30;;
41627;SDS011;27321;50.816;6.054;2023-01-10T17:45:51;0.20;;;0.20;;
41627;SDS011;27321;50.816;6.054;2023-01-10T17:48:52;0.73;;;0.27;;
41627;SDS011;27321;50.816;6.054;2023-01-10T17:51:53;1.67;;;0.27;;
41627;SDS011;27321;50.816;6.054;2023-01-10T17:54:55;0.65;;;0.30;;
41627;SDS011;27321;50.816;6.054;2023-01-10T17:57:56;1.50;;;0.27;;
41627;SDS011;27321;50.816;6.054;2023-01-10T18:00:57;1.02;;;0.40;;
41627;SDS011;27321;50.816;6.054;2023-01-10T18:03:58;1.10;;;0.40;;
41627;SDS011;27321;50.816;6.054;2023-01-10T18:06:59;0.50;;;0.40;;
41627;SDS011;27321;50.816;6.054;2023-01-10T18:10:00;0.20;;;0.20;;
41627;SDS011;27321;50.816;6.054;2023-01-10T18:13:01;0.53;;;0.23;;
41627;SDS011;27321;50.816;6.054;2023-01-10T18:16:02;1.67;;;0.57;;
41627;SDS011;27321;50.816;6.054;2023-01-10T18:19:04;2.00;;;0.30;;
41627;SDS011;27321;50.816;6.054;2023-01-10T18:22:05;0.67;;;0.30;;
41627;SDS011;27321;50.816;6.054;2023-01-10T18:25:25;0.50;;;0.20;;
41627;SDS011;27321;50.816;6.054;2023-01-10T18:28:29;0.77;;;0.20;;
41627;SDS011;27321;50.816;6.054;2023-01-10T18:31:38;1.07;;;0.30;;
41627;SDS011;27321;50.816;6.054;2023-01-10T18:34:41;0.30;;;0.30;;
41627;SDS011;27321;50.816;6.054;2023-01-10T18:37:42;0.40;;;0.40;;
41627;SDS011;27321;50.816;6.054;2023-01-10T18:40:43;0.52;;;0.30;;
41627;SDS011;27321;50.816;6.054;2023-01-10T18:43:46;0.83;;;0.43;;
41627;SDS011;27321;50.816;6.054;2023-01-10T18:46:47;0.77;;;0.30;;
41627;SDS011;27321;50.816;6.054;2023-01-10T18:49:48;0.70;;;0.32;;
41627;SDS011;27321;50.816;6.054;2023-01-10T18:52:50;0.33;;;0.30;;
41627;SDS011;27321;50.816;6.054;2023-01-10T18:56:00;0.43;;;0.20;;
41627;SDS011;27321;50.816;6.054;2023-01-10T18:59:06;0.30;;;0.30;;
41627;SDS011;27321;50.816;6.054;2023-01-10T19:02:16;0.10;;;0.10;;
41627;SDS011;27321;50.816;6.054;2023-01-10T19:05:18;0.50;;;0.30;;
41627;SDS011;27321;50.816;6.054;2023-01-10T19:11:20;0.40;;;0.20;;
41627;SDS011;27321;50.816;6.054;2023-01-10T19:14:21;0.30;;;0.20;;
41627;SDS011;27321;50.816;6.054;2023-01-10T19:17:22;0.52;;;0.30;;
41627;SDS011;27321;50.816;6.054;2023-01-10T19:20:24;0.45;;;0.30;;
41627;SDS011;27321;50.816;6.054;2023-01-10T19:23:25;0.77;;;0.30;;
41627;SDS011;27321;50.816;6.054;2023-01-10T19:26:26;0.50;;;0.30;;
41627;SDS011;27321;50.816;6.054;2023-01-10T19:29:28;0.32;;;0.25;;
41627;SDS011;27321;50.816;6.054;2023-01-10T19:32:31;0.10;;;0.10;;
41627;SDS011;27321;50.816;6.054;2023-01-10T19:35:34;0.93;;;0.30;;
41627;SDS011;27321;50.816;6.054;2023-01-10T19:38:39;0.70;;;0.20;;
41627;SDS011;27321;50.816;6.054;2023-01-10T19:41:40;0.60;;;0.22;;
41627;SDS011;27321;50.816;6.054;2023-01-10T19:44:42;1.05;;;0.30;;
41627;SDS011;27321;50.816;6.054;2023-01-10T19:47:43;1.65;;;0.35;;
41627;SDS011;27321;50.816;6.054;2023-01-10T19:50:44;0.20;;;0.20;;
41627;SDS011;27321;50.816;6.054;2023-01-10T19:53:45;0.88;;;0.30;;
41627;SDS011;27321;50.816;6.054;2023-01-10T19:56:47;0.33;;;0.20;;
41627;SDS011;27321;50.816;6.054;2023-01-10T19:59:48;0.40;;;0.32;;
41627;SDS011;27321;50.816;6.054;2023-01-10T20:02:51;1.60;;;0.20;;
41627;SDS011;27321;50.816;6.054;2023-01-10T20:05:52;0.77;;;0.35;;
41627;SDS011;27321;50.816;6.054;2023-01-10T20:08:53;1.27;;;0.10;;
41627;SDS011;27321;50.816;6.054;2023-01-10T20:14:55;1.37;;;0.40;;